Time;durP1;ratioP1;P1;durP2;ratioP2;P2;SDS_P1;SDS_P2;PMS_P1;PMS_P2;Temp;Humidity;BMP_temperature;BMP_pressure;BME280_temperature;BME280_humidity;BME280_pressure;Samples;Min_cycle;Max_cycle;Signal;HPM_P1;HPM_P2
2023/03/03 00:01:26;;;;;;;92.60;47.50;;;;;;;-2.93;85.55;100942.39;108663;1270;37010;-77
2023/03/03 00:04:00;;;;;;;101.10;49.30;;;;;;;-2.90;85.78;100947.58;108719;1276;36980;-76
2023/03/03 00:06:34;;;;;;;92.00;48.80;;;;;;;-2.89;85.71;100943.68;108712;1255;37147;-77
2023/03/03 00:09:09;;;;;;;96.70;48.60;;;;;;;-2.90;85.70;100937.19;108700;1255;37019;-76
2023/03/03 00:11:43;;;;;;;91.70;47.00;;;;;;;-2.92;85.73;100933.54;108488;1274;175679;-75
2023/03/03 00:14:24;;;;;;;83.00;43.00;;;;;;;-2.94;85.50;100930.94;108750;1276;38897;-76
2023/03/03 00:16:59;;;;;;;86.90;43.60;;;;;;;-2.91;85.63;100935.09;108763;1254;36176;-77
2023/03/03 00:19:34;;;;;;;85.60;44.40;;;;;;;-2.87;85.84;100931.78;108707;1276;36229;-76
2023/03/03 00:22:16;;;;;;;86.10;43.70;;;;;;;-2.85;85.80;100935.42;108793;1257;37048;-78
2023/03/03 00:24:50;;;;;;;93.60;45.00;;;;;;;-2.88;85.55;100933.31;108765;1275;37363;-76
2023/03/03 00:27:30;;;;;;;83.70;42.90;;;;;;;-2.90;85.64;100928.12;108736;1253;36097;-76
2023/03/03 00:30:06;;;;;;;80.90;40.90;;;;;;;-2.92;85.45;100922.43;108832;1260;36982;-77
2023/03/03 00:32:45;;;;;;;82.20;43.50;;;;;;;-2.90;85.62;100923.87;108748;1257;37003;-77
2023/03/03 00:35:29;;;;;;;81.10;44.30;;;;;;;-2.86;85.81;100921.75;108794;1275;36222;-73
2023/03/03 00:38:14;;;;;;;87.40;44.60;;;;;;;-2.83;85.70;100916.02;108828;1275;38547;-75
2023/03/03 00:40:49;;;;;;;84.40;45.20;;;;;;;-2.83;85.79;100909.19;108810;1270;36113;-77
2023/03/03 00:43:24;;;;;;;84.80;44.20;;;;;;;-2.86;85.78;100904.84;108776;1256;37108;-76
2023/03/03 00:46:01;;;;;;;86.30;44.40;;;;;;;-2.91;85.71;100901.14;108620;1268;37674;-77
2023/03/03 00:48:44;;;;;;;77.60;41.50;;;;;;;-2.91;85.72;100898.06;108766;1267;37057;-77
2023/03/03 00:51:29;;;;;;;79.60;41.20;;;;;;;-2.88;85.91;100899.67;108803;1260;36995;-78
2023/03/03 00:54:04;;;;;;;86.50;42.10;;;;;;;-2.85;85.99;100895.14;108789;1257;37257;-77
2023/03/03 00:56:39;;;;;;;80.60;41.40;;;;;;;-2.82;86.13;100898.10;108787;1254;36954;-78
2023/03/03 00:59:13;;;;;;;82.90;40.90;;;;;;;-2.83;86.11;100889.04;108387;1275;517455;-76
2023/03/03 01:01:47;;;;;;;76.40;39.90;;;;;;;-2.84;85.91;100882.50;108584;1268;37419;-75
2023/03/03 01:04:21;;;;;;;74.60;38.90;;;;;;;-2.85;85.82;100882.83;108753;1275;37065;-76
2023/03/03 01:06:55;;;;;;;72.80;39.00;;;;;;;-2.87;85.77;100881.61;108762;1275;36974;-77
2023/03/03 01:09:29;;;;;;;76.40;40.00;;;;;;;-2.85;85.85;100879.43;108772;1263;38752;-75
2023/03/03 01:12:04;;;;;;;75.10;40.70;;;;;;;-2.85;85.94;100874.80;108799;1264;36952;-77
2023/03/03 01:14:38;;;;;;;80.80;42.20;;;;;;;-2.87;85.91;100868.27;108776;1275;36947;-76
2023/03/03 01:17:13;;;;;;;81.80;41.40;;;;;;;-2.91;85.70;100862.73;108780;1257;37068;-77
2023/03/03 01:19:48;;;;;;;75.80;40.10;;;;;;;-2.96;85.59;100860.73;108750;1275;37065;-77
2023/03/03 01:22:22;;;;;;;75.90;40.40;;;;;;;-2.98;85.58;100853.33;108792;1275;36712;-77
2023/03/03 01:24:59;;;;;;;76.60;40.60;;;;;;;-2.97;85.85;100843.63;108116;1253;923713;-77
2023/03/03 01:27:34;;;;;;;74.40;39.20;;;;;;;-2.96;85.93;100843.30;108781;1275;37339;-77
2023/03/03 01:30:12;;;;;;;75.80;40.40;;;;;;;-2.96;85.92;100844.83;108746;1275;37024;-77
2023/03/03 01:32:46;;;;;;;74.70;39.40;;;;;;;-2.98;85.82;100841.23;108780;1257;36962;-76
2023/03/03 01:35:21;;;;;;;80.80;41.30;;;;;;;-3.02;85.77;100837.38;108757;1275;37140;-75
2023/03/03 01:37:55;;;;;;;77.80;39.50;;;;;;;-3.05;85.77;100835.23;108771;1254;37150;-76
2023/03/03 01:40:30;;;;;;;67.10;37.30;;;;;;;-3.06;85.75;100836.56;108764;1256;38102;-76
2023/03/03 01:43:05;;;;;;;69.20;36.60;;;;;;;-3.06;85.88;100830.27;108784;1275;37588;-74
2023/03/03 01:46:16;;;;;;;71.20;39.30;;;;;;;-3.06;85.90;100824.62;108607;1254;37629;-76
2023/03/03 01:48:51;;;;;;;74.10;37.90;;;;;;;-3.06;86.04;100820.86;108737;1275;36638;-77
2023/03/03 01:51:28;;;;;;;73.80;38.30;;;;;;;-3.07;86.05;100817.95;108766;1275;37089;-78
2023/03/03 01:54:03;;;;;;;68.10;36.50;;;;;;;-3.12;86.00;100819.38;108768;1275;37115;-76
2023/03/03 01:56:37;;;;;;;68.60;37.50;;;;;;;-3.12;85.98;100820.21;108632;1267;39129;-75
2023/03/03 01:59:14;;;;;;;72.90;37.10;;;;;;;-3.12;86.15;100818.02;108818;1259;36688;-76
2023/03/03 02:01:49;;;;;;;67.90;36.90;;;;;;;-3.10;86.07;100818.56;108756;1259;37069;-77
2023/03/03 02:04:25;;;;;;;73.20;39.90;;;;;;;-3.11;85.98;100819.90;108816;1274;36134;-77
2023/03/03 02:07:05;;;;;;;64.40;35.70;;;;;;;-3.12;85.95;100815.10;108607;1270;37218;-77
2023/03/03 02:09:45;;;;;;;69.90;37.30;;;;;;;-3.15;85.85;100812.65;108792;1275;37134;-76
2023/03/03 02:12:20;;;;;;;74.80;38.40;;;;;;;-3.19;85.85;100815.80;108789;1275;36807;-76
2023/03/03 02:14:57;;;;;;;64.40;35.90;;;;;;;-3.20;85.85;100813.70;108131;1267;923143;-78
2023/03/03 02:17:31;;;;;;;65.50;35.40;;;;;;;-3.20;86.13;100816.26;108769;1275;37279;-76
2023/03/03 02:20:10;;;;;;;64.00;35.70;;;;;;;-3.18;86.09;100819.73;108758;1275;37116;-78
2023/03/03 02:22:47;;;;;;;65.70;36.70;;;;;;;-3.17;86.31;100816.52;108609;1270;36645;-76
2023/03/03 02:25:25;;;;;;;71.60;37.50;;;;;;;-3.18;86.32;100814.10;108709;1254;37916;-77
2023/03/03 02:27:59;;;;;;;68.30;36.50;;;;;;;-3.20;86.16;100814.73;108758;1275;37135;-76
2023/03/03 02:30:36;;;;;;;71.60;37.00;;;;;;;-3.22;86.13;100816.90;108771;1256;36121;-79
2023/03/03 02:33:10;;;;;;;65.70;33.30;;;;;;;-3.24;86.15;100818.06;108743;1257;36962;-76
2023/03/03 02:35:45;;;;;;;64.60;34.80;;;;;;;-3.22;86.13;100819.45;108781;1259;37135;-76
2023/03/03 02:38:24;;;;;;;63.10;36.70;;;;;;;-3.23;86.11;100818.41;108794;1275;36969;-74
2023/03/03 02:41:08;;;;;;;67.00;36.20;;;;;;;-3.23;86.30;100819.45;108746;1275;37336;-77
2023/03/03 02:43:46;;;;;;;71.30;37.00;;;;;;;-3.23;86.56;100819.61;108792;1266;38290;-76
2023/03/03 02:46:20;;;;;;;68.00;34.50;;;;;;;-3.24;86.44;100816.51;108752;1275;36988;-78
2023/03/03 02:48:55;;;;;;;67.40;35.70;;;;;;;-3.26;86.47;100814.75;108795;1275;36854;-78
2023/03/03 02:51:29;;;;;;;68.60;36.00;;;;;;;-3.26;86.59;100813.04;108784;1257;37085;-75
2023/03/03 02:54:03;;;;;;;63.10;33.80;;;;;;;-3.24;86.65;100815.16;108614;1254;175491;-76
2023/03/03 02:56:38;;;;;;;64.30;35.60;;;;;;;-3.21;86.56;100810.77;108772;1263;37115;-75
2023/03/03 02:59:12;;;;;;;71.90;37.60;;;;;;;-3.21;86.54;100811.29;108683;1267;36196;-77
2023/03/03 03:01:46;;;;;;;72.60;38.50;;;;;;;-3.21;86.72;100804.29;108730;1264;37039;-78
2023/03/03 03:04:22;;;;;;;79.20;41.10;;;;;;;-3.23;86.97;100804.77;108692;1275;38274;-76
2023/03/03 03:06:56;;;;;;;72.60;38.10;;;;;;;-3.23;87.00;100803.57;108738;1263;36972;-78
2023/03/03 03:09:31;;;;;;;69.20;36.40;;;;;;;-3.23;86.93;100801.52;108800;1262;36837;-77
2023/03/03 03:12:05;;;;;;;67.90;37.00;;;;;;;-3.22;87.15;100799.33;108712;1275;37105;-77
2023/03/03 03:14:39;;;;;;;71.90;38.70;;;;;;;-3.20;87.22;100794.09;108754;1275;36221;-76
2023/03/03 03:17:13;;;;;;;72.00;39.00;;;;;;;-3.18;87.63;100796.02;108723;1256;36625;-78
2023/03/03 03:19:48;;;;;;;72.70;38.70;;;;;;;-3.16;87.79;100795.20;108715;1275;37178;-77
2023/03/03 03:22:22;;;;;;;73.90;38.40;;;;;;;-3.15;87.90;100792.35;108738;1256;37568;-78
2023/03/03 03:24:56;;;;;;;70.30;37.70;;;;;;;-3.13;87.76;100796.66;108737;1275;38655;-76
2023/03/03 03:27:30;;;;;;;67.30;35.70;;;;;;;-3.11;87.68;100799.42;108724;1260;36725;-75
2023/03/03 03:30:08;;;;;;;68.30;37.10;;;;;;;-3.07;87.72;100799.86;108741;1257;37045;-76
2023/03/03 03:32:42;;;;;;;69.80;38.60;;;;;;;-3.05;87.71;100797.17;108752;1258;36993;-77
2023/03/03 03:35:17;;;;;;;69.70;37.70;;;;;;;-3.06;87.71;100791.86;108554;1257;37583;-75
2023/03/03 03:37:51;;;;;;;70.70;38.10;;;;;;;-3.06;87.71;100795.80;108729;1256;38472;-76
2023/03/03 03:40:25;;;;;;;68.40;35.90;;;;;;;-3.06;87.82;100793.22;108751;1257;38531;-78
2023/03/03 03:42:59;;;;;;;65.70;35.10;;;;;;;-3.05;87.77;100797.02;108711;1275;38558;-78
2023/03/03 03:45:36;;;;;;;70.00;36.10;;;;;;;-3.03;87.62;100793.30;108779;1257;37880;-77
2023/03/03 03:48:10;;;;;;;74.20;39.10;;;;;;;-3.04;87.67;100790.04;108724;1275;37079;-78
2023/03/03 03:50:45;;;;;;;75.70;38.00;;;;;;;-3.05;87.74;100785.41;108767;1275;37105;-75
2023/03/03 03:53:19;;;;;;;73.70;37.60;;;;;;;-3.06;87.77;100778.88;108728;1256;37162;-74
2023/03/03 03:55:53;;;;;;;68.00;35.00;;;;;;;-3.06;87.85;100769.17;108559;1261;36931;-75
2023/03/03 03:58:32;;;;;;;76.20;37.20;;;;;;;-3.06;88.17;100770.55;108543;1260;37490;-76
2023/03/03 04:01:08;;;;;;;69.70;37.50;;;;;;;-3.03;88.14;100781.35;108751;1265;37090;-77
2023/03/03 04:03:43;;;;;;;72.80;39.50;;;;;;;-3.01;88.03;100778.83;108469;1275;37040;-77
2023/03/03 04:06:17;;;;;;;73.80;38.30;;;;;;;-3.03;88.25;100773.50;108757;1256;37062;-75
2023/03/03 04:08:52;;;;;;;75.10;39.00;;;;;;;-3.03;88.18;100777.24;108513;1262;175542;-75
2023/03/03 04:11:26;;;;;;;68.10;37.10;;;;;;;-3.04;88.04;100779.45;108759;1275;37063;-76
2023/03/03 04:14:00;;;;;;;68.70;36.70;;;;;;;-3.02;88.16;100776.77;108750;1275;37172;-77
2023/03/03 04:16:35;;;;;;;67.10;36.70;;;;;;;-2.99;87.93;100772.73;108581;1275;37211;-77
2023/03/03 04:19:09;;;;;;;75.00;40.00;;;;;;;-2.99;87.95;100772.91;108718;1275;37142;-75
2023/03/03 04:21:44;;;;;;;76.10;40.70;;;;;;;-3.01;87.88;100765.54;108740;1253;37093;-76
2023/03/03 04:24:19;;;;;;;79.30;39.10;;;;;;;-3.05;87.92;100761.00;108762;1260;37131;-76
2023/03/03 04:26:53;;;;;;;73.50;38.00;;;;;;;-3.08;88.37;100755.64;108741;1256;36873;-75
2023/03/03 04:29:28;;;;;;;70.80;36.20;;;;;;;-3.09;88.44;100752.72;108637;1256;37352;-78
2023/03/03 04:32:03;;;;;;;72.80;37.00;;;;;;;-3.07;88.44;100750.70;108726;1254;37185;-77
2023/03/03 04:34:37;;;;;;;74.50;38.60;;;;;;;-3.04;88.56;100754.52;108757;1257;38269;-77
2023/03/03 04:37:12;;;;;;;71.80;37.00;;;;;;;-3.03;88.31;100753.87;108575;1260;38151;-77
2023/03/03 04:39:46;;;;;;;72.40;37.70;;;;;;;-3.05;88.18;100756.55;108748;1275;37290;-76
2023/03/03 04:42:20;;;;;;;75.60;39.20;;;;;;;-3.08;88.07;100757.34;108770;1275;37047;-76
2023/03/03 04:44:54;;;;;;;78.70;40.00;;;;;;;-3.10;88.33;100748.06;108629;1260;37308;-77
2023/03/03 04:47:29;;;;;;;77.20;42.00;;;;;;;-3.08;88.55;100743.86;108760;1254;37233;-76
2023/03/03 04:50:03;;;;;;;78.30;42.00;;;;;;;-3.07;88.60;100741.14;108742;1275;36665;-77
2023/03/03 04:52:37;;;;;;;90.80;45.20;;;;;;;-3.05;88.61;100746.99;108756;1275;37077;-78
2023/03/03 04:55:15;;;;;;;92.40;45.50;;;;;;;-3.05;88.72;100744.61;108745;1256;37280;-75
2023/03/03 04:57:49;;;;;;;87.40;45.70;;;;;;;-3.05;88.87;100741.55;108734;1253;37141;-76
2023/03/03 05:00:26;;;;;;;89.40;44.40;;;;;;;-3.04;88.74;100737.63;108790;1275;37115;-74
2023/03/03 05:03:01;;;;;;;93.20;47.30;;;;;;;-3.03;88.74;100732.20;108719;1264;37295;-76
2023/03/03 05:05:35;;;;;;;93.90;46.90;;;;;;;-3.01;88.82;100735.49;108757;1257;37235;-76
2023/03/03 05:08:10;;;;;;;91.30;47.20;;;;;;;-3.01;88.77;100735.83;108731;1275;37070;-76
2023/03/03 05:10:44;;;;;;;94.60;47.30;;;;;;;-3.00;88.73;100732.43;108696;1253;36624;-76
2023/03/03 05:13:19;;;;;;;90.80;45.40;;;;;;;-2.99;88.71;100735.02;108710;1271;37351;-76
2023/03/03 05:15:56;;;;;;;90.50;45.50;;;;;;;-2.94;88.98;100732.92;108455;1275;173313;-76
2023/03/03 05:18:30;;;;;;;93.80;48.90;;;;;;;-2.86;89.08;100734.12;108754;1265;37112;-78
2023/03/03 05:21:05;;;;;;;92.00;47.20;;;;;;;-2.77;89.23;100731.06;108790;1253;38427;-76
2023/03/03 05:23:39;;;;;;;91.70;48.90;;;;;;;-2.69;89.28;100732.11;108781;1256;38851;-76
2023/03/03 05:26:13;;;;;;;95.00;48.90;;;;;;;-2.62;89.18;100723.71;108747;1275;37051;-73
2023/03/03 05:28:50;;;;;;;96.90;49.80;;;;;;;-2.58;89.30;100728.58;108633;1259;36838;-75
2023/03/03 05:31:26;;;;;;;87.60;44.80;;;;;;;-2.54;89.22;100730.04;108728;1257;36281;-77
2023/03/03 05:34:00;;;;;;;92.30;47.30;;;;;;;-2.50;88.90;100728.05;108741;1271;37339;-78
2023/03/03 05:36:35;;;;;;;90.10;46.70;;;;;;;-2.45;88.97;100729.88;108766;1275;37183;-78
2023/03/03 05:39:10;;;;;;;96.80;48.20;;;;;;;-2.38;89.09;100731.20;108805;1268;37383;-76
2023/03/03 05:41:44;;;;;;;102.80;52.40;;;;;;;-2.32;89.04;100729.27;108644;1257;36935;-77
2023/03/03 05:44:18;;;;;;;102.90;49.50;;;;;;;-2.27;89.03;100729.38;108794;1258;37015;-76
2023/03/03 05:46:53;;;;;;;101.40;50.20;;;;;;;-2.23;89.07;100724.83;108737;1254;37052;-77
2023/03/03 05:49:27;;;;;;;95.90;47.30;;;;;;;-2.19;88.94;100723.04;108611;1271;36031;-78
2023/03/03 05:52:01;;;;;;;99.00;51.10;;;;;;;-2.14;88.90;100724.67;108781;1263;36991;-77
2023/03/03 05:54:36;;;;;;;104.90;50.80;;;;;;;-2.05;89.01;100720.39;108801;1275;36977;-79
2023/03/03 05:57:10;;;;;;;105.10;54.20;;;;;;;-1.98;88.98;100717.28;108632;1257;38051;-77
2023/03/03 05:59:45;;;;;;;112.70;53.40;;;;;;;-1.93;89.03;100719.59;108773;1253;37142;-77
2023/03/03 06:02:21;;;;;;;110.40;50.20;;;;;;;-1.88;89.08;100715.41;108597;1253;37285;-77
2023/03/03 06:05:01;;;;;;;103.00;49.80;;;;;;;-1.82;89.02;100714.66;108779;1256;36319;-77
2023/03/03 06:07:35;;;;;;;105.60;50.80;;;;;;;-1.74;89.00;100719.59;108743;1256;38254;-77
2023/03/03 06:10:12;;;;;;;113.60;53.10;;;;;;;-1.68;88.87;100716.44;108791;1275;37103;-77
2023/03/03 06:12:47;;;;;;;109.80;51.20;;;;;;;-1.63;88.83;100724.58;108740;1256;37392;-77
2023/03/03 06:15:22;;;;;;;115.30;53.70;;;;;;;-1.58;88.76;100728.41;108672;1260;37273;-76
2023/03/03 06:17:56;;;;;;;111.10;52.70;;;;;;;-1.56;88.59;100725.73;108744;1254;37106;-76
2023/03/03 06:20:31;;;;;;;107.40;50.60;;;;;;;-1.54;88.56;100728.30;108757;1275;36988;-76
2023/03/03 06:23:06;;;;;;;99.70;47.90;;;;;;;-1.52;88.49;100730.77;108818;1253;37049;-77
2023/03/03 06:25:43;;;;;;;105.20;49.10;;;;;;;-1.46;88.62;100729.30;108738;1256;36043;-77
2023/03/03 06:28:19;;;;;;;103.80;50.00;;;;;;;-1.39;88.63;100724.10;108858;1256;38617;-77
2023/03/03 06:30:56;;;;;;;104.00;49.30;;;;;;;-1.35;88.55;100719.73;108809;1275;38225;-74
2023/03/03 06:33:31;;;;;;;97.90;47.40;;;;;;;-1.30;88.72;100716.55;108806;1275;37286;-75
2023/03/03 06:36:06;;;;;;;89.50;44.50;;;;;;;-1.27;88.50;100717.64;108673;1275;37800;-76
2023/03/03 06:38:40;;;;;;;84.60;43.70;;;;;;;-1.25;88.46;100723.82;108805;1257;36809;-77
2023/03/03 06:41:18;;;;;;;87.80;44.20;;;;;;;-1.23;88.31;100726.08;108800;1256;37169;-73
2023/03/03 06:43:56;;;;;;;83.90;41.80;;;;;;;-1.24;88.19;100720.74;108604;1275;37253;-77
2023/03/03 06:46:31;;;;;;;86.60;43.60;;;;;;;-1.24;88.29;100725.04;108597;1259;37155;-76
2023/03/03 06:49:07;;;;;;;82.30;40.70;;;;;;;-1.25;88.23;100723.64;108670;1275;37069;-77
2023/03/03 06:51:44;;;;;;;76.00;38.60;;;;;;;-1.24;88.41;100717.84;108649;1264;173314;-77
2023/03/03 06:54:24;;;;;;;72.10;37.40;;;;;;;-1.21;88.34;100723.03;108690;1258;36466;-77
2023/03/03 06:57:04;;;;;;;72.80;37.40;;;;;;;-1.16;88.41;100721.90;108741;1275;37039;-77
2023/03/03 06:59:39;;;;;;;73.00;37.80;;;;;;;-1.10;88.50;100730.21;108731;1275;37040;-77
2023/03/03 07:02:18;;;;;;;73.30;37.20;;;;;;;-1.06;88.65;100727.88;108770;1275;37219;-77
2023/03/03 07:04:53;;;;;;;73.00;35.70;;;;;;;-1.01;88.77;100723.84;108596;1267;38574;-73
2023/03/03 07:07:27;;;;;;;64.80;33.40;;;;;;;-0.92;88.83;100722.95;108647;1273;175427;-73
2023/03/03 07:10:02;;;;;;;64.20;31.90;;;;;;;-0.83;88.77;100720.52;108691;1259;36679;-78
2023/03/03 07:12:36;;;;;;;66.80;34.00;;;;;;;-0.76;88.62;100719.23;108593;1258;37134;-77
2023/03/03 07:15:20;;;;;;;62.60;34.00;;;;;;;-0.70;88.74;100716.40;108632;1260;37314;-77
2023/03/03 07:17:58;;;;;;;66.60;35.90;;;;;;;-0.67;88.37;100719.02;108753;1254;37067;-76
2023/03/03 07:20:35;;;;;;;68.90;35.20;;;;;;;-0.67;88.14;100709.25;108812;1275;38284;-73
2023/03/03 07:23:19;;;;;;;63.60;32.30;;;;;;;-0.70;88.27;100703.73;108796;1266;37062;-74
2023/03/03 07:25:53;;;;;;;62.90;32.60;;;;;;;-0.72;88.11;100705.41;108771;1260;37229;-74
2023/03/03 07:28:29;;;;;;;65.60;33.00;;;;;;;-0.71;88.28;100706.63;108789;1269;36907;-73
2023/03/03 07:31:05;;;;;;;65.00;33.30;;;;;;;-0.66;88.25;100711.30;108668;1257;37017;-75
2023/03/03 07:33:42;;;;;;;65.40;35.00;;;;;;;-0.60;88.53;100716.37;108746;1275;37169;-75
2023/03/03 07:36:30;;;;;;;69.00;34.10;;;;;;;-0.49;88.67;100718.73;108620;1260;36238;-75
2023/03/03 07:39:16;;;;;;;63.30;31.70;;;;;;;-0.46;88.74;100718.58;108457;1256;175491;-76
2023/03/03 07:41:52;;;;;;;64.10;33.10;;;;;;;-0.40;88.67;100720.89;108629;1259;36998;-77
2023/03/03 07:44:28;;;;;;;59.70;30.90;;;;;;;-0.31;88.86;100715.33;108737;1264;38817;-76
2023/03/03 07:47:08;;;;;;;64.10;33.60;;;;;;;-0.20;89.00;100718.21;108766;1264;36915;-74
2023/03/03 07:49:42;;;;;;;68.00;34.70;;;;;;;-0.09;88.83;100725.89;108591;1259;36999;-76
2023/03/03 07:52:29;;;;;;;69.80;36.50;;;;;;;-0.02;88.47;100723.38;108620;1276;38292;-76
2023/03/03 07:55:18;;;;;;;66.90;35.40;;;;;;;0.05;88.47;100727.05;108678;1276;37003;-76
2023/03/03 07:58:37;;;;;;;61.50;31.90;;;;;;;0.09;88.47;100724.34;108628;1262;37534;-76
2023/03/03 08:01:41;;;;;;;66.30;33.40;;;;;;;0.12;88.15;100727.82;108577;1255;37130;-76
2023/03/03 08:04:23;;;;;;;65.80;34.00;;;;;;;0.18;88.26;100731.81;108612;1257;37157;-77
2023/03/03 08:06:58;;;;;;;67.80;34.10;;;;;;;0.23;88.06;100727.75;108621;1257;37051;-76
2023/03/03 08:09:49;;;;;;;65.00;32.90;;;;;;;0.31;88.16;100729.38;108608;1276;37073;-77
2023/03/03 08:12:43;;;;;;;63.40;33.00;;;;;;;0.39;88.44;100735.98;108610;1252;38292;-73
2023/03/03 08:15:36;;;;;;;71.50;35.70;;;;;;;0.44;88.01;100736.87;108638;1258;37000;-73
2023/03/03 08:18:25;;;;;;;64.30;32.30;;;;;;;0.51;88.28;100740.37;108632;1258;37123;-77
2023/03/03 08:21:01;;;;;;;66.80;33.20;;;;;;;0.58;87.95;100748.33;108643;1258;37007;-74
2023/03/03 08:23:35;;;;;;;59.30;31.80;;;;;;;0.66;87.98;100748.05;108646;1258;38518;-75
2023/03/03 08:26:11;;;;;;;62.20;32.10;;;;;;;0.73;87.84;100748.11;108670;1254;36895;-76
2023/03/03 08:28:45;;;;;;;66.10;34.30;;;;;;;0.77;87.60;100752.78;108779;1276;37032;-78
2023/03/03 08:31:20;;;;;;;66.30;33.90;;;;;;;0.81;87.67;100761.91;108672;1257;37530;-79
2023/03/03 08:33:55;;;;;;;63.20;31.80;;;;;;;0.87;87.65;100766.08;108630;1258;37111;-77
2023/03/03 08:36:30;;;;;;;55.30;29.50;;;;;;;0.92;87.35;100774.70;108651;1254;36993;-79
2023/03/03 08:39:04;;;;;;;56.90;30.40;;;;;;;0.97;86.98;100788.31;108671;1254;37162;-78
2023/03/03 08:41:42;;;;;;;62.00;32.40;;;;;;;0.94;86.51;100788.46;108469;1254;35996;-75
2023/03/03 08:44:18;;;;;;;58.10;31.90;;;;;;;0.92;86.59;100789.66;108624;1264;37152;-75
2023/03/03 08:46:52;;;;;;;65.20;33.50;;;;;;;0.93;86.49;100782.80;108647;1256;37012;-75
2023/03/03 08:49:26;;;;;;;55.80;29.30;;;;;;;0.88;86.31;100778.12;108407;1265;37515;-73
2023/03/03 08:52:01;;;;;;;57.70;29.30;;;;;;;0.82;86.14;100783.90;108612;1276;37073;-74
2023/03/03 08:54:37;;;;;;;56.00;30.30;;;;;;;0.85;86.25;100781.19;108631;1276;35982;-74
2023/03/03 08:57:12;;;;;;;56.60;30.10;;;;;;;0.91;86.10;100781.74;108166;1276;650542;-77
2023/03/03 08:59:46;;;;;;;54.50;29.00;;;;;;;0.94;86.24;100782.29;108659;1273;36973;-79
2023/03/03 09:02:21;;;;;;;55.10;29.70;;;;;;;0.95;85.98;100775.77;108655;1252;38627;-76
2023/03/03 09:04:56;;;;;;;54.90;29.20;;;;;;;0.92;85.72;100776.77;108609;1257;37609;-76
2023/03/03 09:07:30;;;;;;;54.40;28.20;;;;;;;0.87;85.59;100776.21;108643;1276;36489;-78
2023/03/03 09:10:05;;;;;;;48.50;25.80;;;;;;;0.87;85.69;100772.44;108625;1267;37002;-79
2023/03/03 09:12:40;;;;;;;48.60;26.20;;;;;;;0.91;85.79;100772.98;108517;1258;39100;-75
2023/03/03 09:15:24;;;;;;;47.90;27.20;;;;;;;0.98;86.01;100774.07;108603;1258;37620;-75
2023/03/03 09:18:00;;;;;;;51.30;26.50;;;;;;;1.05;85.90;100773.09;108631;1269;36576;-78
2023/03/03 09:20:39;;;;;;;51.40;27.00;;;;;;;1.06;85.51;100761.24;108612;1276;36976;-78
2023/03/03 09:23:34;;;;;;;49.40;27.40;;;;;;;1.04;85.30;100759.85;108671;1276;37152;-78
2023/03/03 09:26:27;;;;;;;43.80;24.70;;;;;;;1.06;85.60;100758.33;108437;1276;37167;-74
2023/03/03 09:29:10;;;;;;;43.50;24.70;;;;;;;1.08;85.41;100755.07;108612;1255;37061;-75
2023/03/03 09:31:46;;;;;;;43.80;24.60;;;;;;;1.10;85.33;100752.52;108634;1276;36966;-76
2023/03/03 09:34:24;;;;;;;41.00;23.40;;;;;;;1.14;85.05;100743.25;108623;1261;37043;-76
2023/03/03 09:36:59;;;;;;;45.30;24.70;;;;;;;1.15;84.93;100744.98;108026;1272;917003;-78
2023/03/03 09:39:34;;;;;;;45.40;26.10;;;;;;;1.16;84.83;100744.98;108646;1264;37178;-77
2023/03/03 09:42:41;;;;;;;48.00;26.60;;;;;;;1.19;84.96;100736.42;108673;1254;37061;-75
2023/03/03 09:45:51;;;;;;;50.80;27.40;;;;;;;1.19;84.84;100736.08;108446;1265;37191;-74
2023/03/03 09:48:47;;;;;;;45.30;23.30;;;;;;;1.20;84.81;100726.10;108495;1268;37218;-77
2023/03/03 09:51:39;;;;;;;41.20;23.90;;;;;;;1.24;84.67;100725.62;108702;1276;37016;-75
2023/03/03 09:54:31;;;;;;;40.60;24.70;;;;;;;1.30;84.43;100726.69;108621;1276;36938;-77
2023/03/03 09:57:11;;;;;;;43.60;24.80;;;;;;;1.32;84.26;100724.11;108651;1276;37105;-76
2023/03/03 10:00:02;;;;;;;48.60;26.70;;;;;;;1.31;84.21;100722.73;108644;1265;37197;-76
2023/03/03 10:02:46;;;;;;;44.50;24.90;;;;;;;1.31;84.16;100727.89;108633;1260;38958;-76
2023/03/03 10:05:29;;;;;;;43.30;22.60;;;;;;;1.32;84.20;100728.77;108660;1265;37092;-77
2023/03/03 10:08:17;;;;;;;40.00;22.90;;;;;;;1.35;84.10;100730.32;108421;1276;37014;-75
2023/03/03 10:11:04;;;;;;;38.00;21.70;;;;;;;1.34;83.71;100729.29;108625;1258;37073;-76
2023/03/03 10:14:01;;;;;;;42.70;22.80;;;;;;;1.33;83.36;100734.44;108659;1252;36989;-75
2023/03/03 10:16:50;;;;;;;38.10;23.10;;;;;;;1.30;83.40;100731.84;108579;1254;36203;-74
2023/03/03 10:19:33;;;;;;;;;;;;;;;1.33;83.53;100729.96;108650;1276;36890;-76
2023/03/03 10:22:19;;;;;;;42.10;22.60;;;;;;;1.32;83.53;100727.38;108697;1265;38526;-78
2023/03/03 10:25:04;;;;;;;44.30;25.20;;;;;;;1.32;83.45;100731.86;108663;1276;37043;-77
2023/03/03 10:27:58;;;;;;;45.40;24.70;;;;;;;1.26;83.11;100734.91;108533;1258;37013;-77
2023/03/03 10:30:45;;;;;;;40.40;21.70;;;;;;;1.27;83.52;100727.86;108635;1252;36965;-75
2023/03/03 10:33:25;;;;;;;37.10;20.70;;;;;;;1.29;83.21;100729.44;108628;1276;36086;-76
2023/03/03 10:36:45;;;;;;;40.40;22.80;;;;;;;1.30;82.89;100735.10;108677;1258;38022;-74
2023/03/03 10:39:56;;;;;;;36.50;21.40;;;;;;;1.25;82.77;100741.27;108608;1264;37022;-76
2023/03/03 10:42:48;;;;;;;39.60;22.50;;;;;;;1.27;82.99;100746.94;108685;1271;37113;-77
2023/03/03 10:45:40;;;;;;;40.40;22.30;;;;;;;1.30;82.89;100748.34;108607;1276;36459;-78
2023/03/03 10:48:28;;;;;;;41.30;22.40;;;;;;;1.27;82.74;100754.68;108638;1257;37132;-77
2023/03/03 10:51:05;;;;;;;40.90;22.70;;;;;;;1.26;82.74;100755.02;108625;1276;36409;-74
2023/03/03 10:53:44;;;;;;;42.10;23.30;;;;;;;1.31;82.80;100754.52;108646;1276;37610;-74
2023/03/03 10:56:29;;;;;;;42.50;23.30;;;;;;;1.30;82.27;100752.63;108692;1272;37335;-74
2023/03/03 10:59:15;;;;;;;42.90;25.40;;;;;;;1.24;82.18;100750.53;108434;1264;36932;-74
2023/03/03 11:01:52;;;;;;;43.10;25.00;;;;;;;1.20;82.02;100747.06;108627;1276;37917;-75
2023/03/03 11:04:45;;;;;;;42.30;24.00;;;;;;;1.16;82.05;100742.40;108626;1276;38086;-76
2023/03/03 11:07:24;;;;;;;46.20;25.20;;;;;;;1.14;82.02;100748.58;108647;1262;38507;-78
2023/03/03 11:10:09;;;;;;;42.80;24.00;;;;;;;1.16;82.11;100754.44;108632;1269;37269;-77
2023/03/03 11:12:52;;;;;;;43.90;26.40;;;;;;;1.15;81.81;100760.10;108422;1276;37073;-77
2023/03/03 11:15:36;;;;;;;46.30;26.10;;;;;;;1.11;81.75;100760.94;108623;1276;36993;-77
2023/03/03 11:18:38;;;;;;;46.10;26.30;;;;;;;1.09;81.78;100764.35;108591;1275;37065;-75
2023/03/03 11:21:20;;;;;;;46.40;26.80;;;;;;;1.01;81.55;100761.72;108630;1259;37240;-75
2023/03/03 11:24:30;;;;;;;47.90;27.40;;;;;;;0.98;81.98;100757.75;108642;1269;37129;-77
2023/03/03 11:27:21;;;;;;;48.20;28.60;;;;;;;0.99;82.01;100747.46;108596;1276;37417;-74
2023/03/03 11:30:11;;;;;;;46.10;26.30;;;;;;;0.94;81.78;100743.46;108406;1275;37169;-75
2023/03/03 11:32:48;;;;;;;40.80;24.70;;;;;;;0.94;81.87;100734.88;108634;1274;36999;-75
2023/03/03 11:35:28;;;;;;;45.70;26.80;;;;;;;0.94;81.75;100731.44;108627;1268;36589;-75
2023/03/03 11:38:05;;;;;;;;;;;;;;;0.96;82.12;100730.25;108656;1258;37114;-74
2023/03/03 11:40:47;;;;;;;46.40;27.10;;;;;;;0.96;82.06;100726.64;108626;1264;36487;-74
2023/03/03 11:43:25;;;;;;;46.20;28.30;;;;;;;0.92;81.78;100724.05;108623;1258;37081;-75
2023/03/03 11:46:03;;;;;;;49.80;27.20;;;;;;;0.88;81.87;100723.84;108393;1276;37315;-74
2023/03/03 11:48:43;;;;;;;45.40;25.40;;;;;;;0.89;82.13;100721.44;108581;1276;37185;-74
2023/03/03 11:51:23;;;;;;;39.50;23.00;;;;;;;0.88;81.98;100723.67;108621;1264;37086;-77
2023/03/03 11:54:04;;;;;;;40.60;23.50;;;;;;;0.91;82.01;100722.32;108401;1267;36839;-77
2023/03/03 11:56:41;;;;;;;39.90;23.70;;;;;;;0.96;82.14;100725.27;108512;1276;173111;-76